sensor_id;sensor_type;location;lat;lon;timestamp;temperature;humidity
12769;DHT22;6448;48.916;8.990;2023-08-07T00:00:34;17.20;62.10
12769;DHT22;6448;48.916;8.990;2023-08-07T00:01:36;17.30;62.10
12769;DHT22;6448;48.916;8.990;2023-08-07T00:02:38;17.30;62.10
12769;DHT22;6448;48.916;8.990;2023-08-07T00:03:40;17.20;62.10
12769;DHT22;6448;48.916;8.990;2023-08-07T00:04:41;17.20;62.50
12769;DHT22;6448;48.916;8.990;2023-08-07T00:05:44;17.20;62.20
12769;DHT22;6448;48.916;8.990;2023-08-07T00:06:45;17.20;62.10
12769;DHT22;6448;48.916;8.990;2023-08-07T00:07:47;17.20;61.90
12769;DHT22;6448;48.916;8.990;2023-08-07T00:08:47;17.20;61.80
12769;DHT22;6448;48.916;8.990;2023-08-07T00:09:49;17.20;61.80
12769;DHT22;6448;48.916;8.990;2023-08-07T00:10:50;17.20;61.80
12769;DHT22;6448;48.916;8.990;2023-08-07T00:11:52;17.20;61.90
12769;DHT22;6448;48.916;8.990;2023-08-07T00:12:52;17.20;61.80
12769;DHT22;6448;48.916;8.990;2023-08-07T00:13:54;17.20;61.80
12769;DHT22;6448;48.916;8.990;2023-08-07T00:14:55;17.20;61.80
12769;DHT22;6448;48.916;8.990;2023-08-07T00:15:57;17.20;61.80
12769;DHT22;6448;48.916;8.990;2023-08-07T00:16:58;17.20;61.80
12769;DHT22;6448;48.916;8.990;2023-08-07T00:18:01;17.20;61.70
12769;DHT22;6448;48.916;8.990;2023-08-07T00:19:02;17.20;61.70
12769;DHT22;6448;48.916;8.990;2023-08-07T00:20:05;17.20;61.70
12769;DHT22;6448;48.916;8.990;2023-08-07T00:21:06;17.20;61.80
12769;DHT22;6448;48.916;8.990;2023-08-07T00:22:07;17.20;61.70
12769;DHT22;6448;48.916;8.990;2023-08-07T00:23:09;17.20;61.80
12769;DHT22;6448;48.916;8.990;2023-08-07T00:24:10;17.20;61.80
12769;DHT22;6448;48.916;8.990;2023-08-07T00:25:11;17.20;61.60
12769;DHT22;6448;48.916;8.990;2023-08-07T00:26:12;17.20;61.50
12769;DHT22;6448;48.916;8.990;2023-08-07T00:27:14;17.20;61.50
12769;DHT22;6448;48.916;8.990;2023-08-07T00:28:15;17.30;61.60
12769;DHT22;6448;48.916;8.990;2023-08-07T00:29:17;17.20;61.90
12769;DHT22;6448;48.916;8.990;2023-08-07T00:30:17;17.30;61.60
12769;DHT22;6448;48.916;8.990;2023-08-07T00:31:19;17.30;61.60
12769;DHT22;6448;48.916;8.990;2023-08-07T00:32:20;17.30;61.50
12769;DHT22;6448;48.916;8.990;2023-08-07T00:33:23;17.20;61.40
12769;DHT22;6448;48.916;8.990;2023-08-07T00:34:24;17.30;61.40
12769;DHT22;6448;48.916;8.990;2023-08-07T00:35:25;17.20;61.30
12769;DHT22;6448;48.916;8.990;2023-08-07T00:36:26;17.30;61.40
12769;DHT22;6448;48.916;8.990;2023-08-07T00:37:29;17.30;61.40
12769;DHT22;6448;48.916;8.990;2023-08-07T00:38:30;17.20;61.20
12769;DHT22;6448;48.916;8.990;2023-08-07T00:39:32;17.20;61.90
12769;DHT22;6448;48.916;8.990;2023-08-07T00:40:39;17.20;61.20
12769;DHT22;6448;48.916;8.990;2023-08-07T00:41:41;17.30;61.20
12769;DHT22;6448;48.916;8.990;2023-08-07T00:42:41;17.20;61.00
12769;DHT22;6448;48.916;8.990;2023-08-07T00:43:43;17.30;61.10
12769;DHT22;6448;48.916;8.990;2023-08-07T00:44:44;17.20;61.10
12769;DHT22;6448;48.916;8.990;2023-08-07T00:45:47;17.20;61.00
12769;DHT22;6448;48.916;8.990;2023-08-07T00:46:47;17.20;61.00
12769;DHT22;6448;48.916;8.990;2023-08-07T00:47:49;17.20;61.00
12769;DHT22;6448;48.916;8.990;2023-08-07T00:48:52;17.20;60.90
12769;DHT22;6448;48.916;8.990;2023-08-07T00:49:55;17.20;60.80
12769;DHT22;6448;48.916;8.990;2023-08-07T00:50:57;17.30;60.90
12769;DHT22;6448;48.916;8.990;2023-08-07T00:51:59;17.30;60.90
12769;DHT22;6448;48.916;8.990;2023-08-07T00:53:00;17.30;60.80
12769;DHT22;6448;48.916;8.990;2023-08-07T00:54:04;17.20;60.70
12769;DHT22;6448;48.916;8.990;2023-08-07T00:55:05;17.20;60.70
12769;DHT22;6448;48.916;8.990;2023-08-07T00:56:07;17.30;60.80
12769;DHT22;6448;48.916;8.990;2023-08-07T00:57:11;17.30;60.70
12769;DHT22;6448;48.916;8.990;2023-08-07T00:58:13;17.30;60.70
12769;DHT22;6448;48.916;8.990;2023-08-07T00:59:15;17.20;60.60
12769;DHT22;6448;48.916;8.990;2023-08-07T01:00:17;17.30;60.60
12769;DHT22;6448;48.916;8.990;2023-08-07T01:01:18;17.30;60.60
12769;DHT22;6448;48.916;8.990;2023-08-07T01:02:20;17.30;60.50
12769;DHT22;6448;48.916;8.990;2023-08-07T01:03:21;17.30;60.40
12769;DHT22;6448;48.916;8.990;2023-08-07T01:04:25;17.30;60.50
12769;DHT22;6448;48.916;8.990;2023-08-07T01:05:26;17.30;60.50
12769;DHT22;6448;48.916;8.990;2023-08-07T01:06:28;17.30;60.30
12769;DHT22;6448;48.916;8.990;2023-08-07T01:07:29;17.30;60.30
12769;DHT22;6448;48.916;8.990;2023-08-07T01:08:31;17.30;60.20
12769;DHT22;6448;48.916;8.990;2023-08-07T01:09:32;17.30;60.20
12769;DHT22;6448;48.916;8.990;2023-08-07T01:10:40;17.30;60.20
12769;DHT22;6448;48.916;8.990;2023-08-07T01:11:46;17.30;60.20
12769;DHT22;6448;48.916;8.990;2023-08-07T01:13:01;17.30;60.20
12769;DHT22;6448;48.916;8.990;2023-08-07T01:14:08;17.30;60.10
12769;DHT22;6448;48.916;8.990;2023-08-07T01:15:12;17.30;61.00
12769;DHT22;6448;48.916;8.990;2023-08-07T01:16:21;17.30;60.30
12769;DHT22;6448;48.916;8.990;2023-08-07T01:17:28;17.30;60.20
12769;DHT22;6448;48.916;8.990;2023-08-07T01:18:29;17.30;60.10
12769;DHT22;6448;48.916;8.990;2023-08-07T01:19:34;17.30;60.10
12769;DHT22;6448;48.916;8.990;2023-08-07T01:20:36;17.30;60.10
12769;DHT22;6448;48.916;8.990;2023-08-07T01:21:39;17.30;60.00
12769;DHT22;6448;48.916;8.990;2023-08-07T01:22:42;17.30;60.00
12769;DHT22;6448;48.916;8.990;2023-08-07T01:23:45;17.30;60.00
12769;DHT22;6448;48.916;8.990;2023-08-07T01:24:48;17.30;60.00
12769;DHT22;6448;48.916;8.990;2023-08-07T01:25:50;17.30;59.90
12769;DHT22;6448;48.916;8.990;2023-08-07T01:26:52;17.30;59.90
12769;DHT22;6448;48.916;8.990;2023-08-07T01:28:02;17.30;59.90
12769;DHT22;6448;48.916;8.990;2023-08-07T01:29:11;17.30;59.90
12769;DHT22;6448;48.916;8.990;2023-08-07T01:30:19;17.30;60.00
12769;DHT22;6448;48.916;8.990;2023-08-07T01:31:22;17.30;60.00
12769;DHT22;6448;48.916;8.990;2023-08-07T01:32:32;17.30;60.00
12769;DHT22;6448;48.916;8.990;2023-08-07T01:33:42;17.30;60.00
12769;DHT22;6448;48.916;8.990;2023-08-07T01:34:45;17.30;60.00
12769;DHT22;6448;48.916;8.990;2023-08-07T01:35:51;17.30;59.90
12769;DHT22;6448;48.916;8.990;2023-08-07T01:36:54;17.30;59.80
12769;DHT22;6448;48.916;8.990;2023-08-07T01:37:57;17.30;59.70
12769;DHT22;6448;48.916;8.990;2023-08-07T01:39:01;17.30;59.70
12769;DHT22;6448;48.916;8.990;2023-08-07T01:40:03;17.30;59.70
12769;DHT22;6448;48.916;8.990;2023-08-07T01:41:05;17.30;59.60
12769;DHT22;6448;48.916;8.990;2023-08-07T01:42:07;17.30;59.60
12769;DHT22;6448;48.916;8.990;2023-08-07T01:43:10;17.30;59.60
12769;DHT22;6448;48.916;8.990;2023-08-07T01:44:10;17.30;59.60
12769;DHT22;6448;48.916;8.990;2023-08-07T01:45:14;17.30;59.60
12769;DHT22;6448;48.916;8.990;2023-08-07T01:46:14;17.30;60.20
12769;DHT22;6448;48.916;8.990;2023-08-07T01:47:16;17.30;59.50
12769;DHT22;6448;48.916;8.990;2023-08-07T01:48:19;17.30;59.50
12769;DHT22;6448;48.916;8.990;2023-08-07T01:49:21;17.30;59.40
12769;DHT22;6448;48.916;8.990;2023-08-07T01:50:23;17.30;59.30
12769;DHT22;6448;48.916;8.990;2023-08-07T01:51:25;17.30;59.20
12769;DHT22;6448;48.916;8.990;2023-08-07T01:52:26;17.30;59.20
12769;DHT22;6448;48.916;8.990;2023-08-07T01:53:29;17.30;59.20
12769;DHT22;6448;48.916;8.990;2023-08-07T01:54:30;17.30;59.10
12769;DHT22;6448;48.916;8.990;2023-08-07T01:55:32;17.30;59.00
12769;DHT22;6448;48.916;8.990;2023-08-07T01:56:33;17.30;59.00
12769;DHT22;6448;48.916;8.990;2023-08-07T01:57:35;17.30;58.90
12769;DHT22;6448;48.916;8.990;2023-08-07T01:58:35;17.30;58.90
12769;DHT22;6448;48.916;8.990;2023-08-07T01:59:37;17.30;58.90
12769;DHT22;6448;48.916;8.990;2023-08-07T02:00:38;17.30;59.00
12769;DHT22;6448;48.916;8.990;2023-08-07T02:01:42;17.30;58.90
12769;DHT22;6448;48.916;8.990;2023-08-07T02:02:43;17.30;59.00
12769;DHT22;6448;48.916;8.990;2023-08-07T02:03:47;17.30;58.90
12769;DHT22;6448;48.916;8.990;2023-08-07T02:04:47;17.30;58.90
12769;DHT22;6448;48.916;8.990;2023-08-07T02:05:48;17.30;58.80
12769;DHT22;6448;48.916;8.990;2023-08-07T02:06:50;17.30;58.70
12769;DHT22;6448;48.916;8.990;2023-08-07T02:07:51;17.30;58.70
12769;DHT22;6448;48.916;8.990;2023-08-07T02:08:56;17.30;58.70
12769;DHT22;6448;48.916;8.990;2023-08-07T02:09:58;17.30;58.80
12769;DHT22;6448;48.916;8.990;2023-08-07T02:11:00;17.30;58.80
12769;DHT22;6448;48.916;8.990;2023-08-07T02:12:04;17.30;58.80
12769;DHT22;6448;48.916;8.990;2023-08-07T02:13:05;17.30;58.90
12769;DHT22;6448;48.916;8.990;2023-08-07T02:14:07;17.20;58.90
12769;DHT22;6448;48.916;8.990;2023-08-07T02:15:09;17.30;59.00
12769;DHT22;6448;48.916;8.990;2023-08-07T02:16:10;17.30;59.00
12769;DHT22;6448;48.916;8.990;2023-08-07T02:17:12;17.30;59.00
12769;DHT22;6448;48.916;8.990;2023-08-07T02:18:12;17.20;59.00
12769;DHT22;6448;48.916;8.990;2023-08-07T02:19:13;17.20;59.00
12769;DHT22;6448;48.916;8.990;2023-08-07T02:20:15;17.40;59.20
12769;DHT22;6448;48.916;8.990;2023-08-07T02:21:16;17.20;59.10
12769;DHT22;6448;48.916;8.990;2023-08-07T02:22:16;17.30;59.20
12769;DHT22;6448;48.916;8.990;2023-08-07T02:23:18;17.20;59.10
12769;DHT22;6448;48.916;8.990;2023-08-07T02:24:20;17.20;59.10
12769;DHT22;6448;48.916;8.990;2023-08-07T02:25:22;17.20;59.10
12769;DHT22;6448;48.916;8.990;2023-08-07T02:26:23;17.20;59.20
12769;DHT22;6448;48.916;8.990;2023-08-07T02:27:25;17.20;59.20
12769;DHT22;6448;48.916;8.990;2023-08-07T02:28:25;17.20;59.20
12769;DHT22;6448;48.916;8.990;2023-08-07T02:29:28;17.20;59.10
12769;DHT22;6448;48.916;8.990;2023-08-07T02:30:31;17.20;59.10
12769;DHT22;6448;48.916;8.990;2023-08-07T02:31:32;17.20;59.70
12769;DHT22;6448;48.916;8.990;2023-08-07T02:32:33;17.20;59.00
12769;DHT22;6448;48.916;8.990;2023-08-07T02:33:34;17.20;59.00
12769;DHT22;6448;48.916;8.990;2023-08-07T02:34:36;17.30;59.00
12769;DHT22;6448;48.916;8.990;2023-08-07T02:35:36;17.20;59.00
12769;DHT22;6448;48.916;8.990;2023-08-07T02:36:38;17.30;59.00
12769;DHT22;6448;48.916;8.990;2023-08-07T02:37:39;17.20;59.00
12769;DHT22;6448;48.916;8.990;2023-08-07T02:38:41;17.20;58.90
12769;DHT22;6448;48.916;8.990;2023-08-07T02:39:43;17.20;59.00
12769;DHT22;6448;48.916;8.990;2023-08-07T02:40:45;17.20;58.90
12769;DHT22;6448;48.916;8.990;2023-08-07T02:41:46;17.20;58.80
12769;DHT22;6448;48.916;8.990;2023-08-07T02:42:47;17.20;58.80
12769;DHT22;6448;48.916;8.990;2023-08-07T02:43:48;17.20;58.90
12769;DHT22;6448;48.916;8.990;2023-08-07T02:44:49;17.20;58.70
12769;DHT22;6448;48.916;8.990;2023-08-07T02:45:50;17.20;58.70
12769;DHT22;6448;48.916;8.990;2023-08-07T02:46:53;17.20;58.60
12769;DHT22;6448;48.916;8.990;2023-08-07T02:47:54;17.20;58.60
12769;DHT22;6448;48.916;8.990;2023-08-07T02:48:56;17.20;58.60
12769;DHT22;6448;48.916;8.990;2023-08-07T02:49:56;17.20;58.60
12769;DHT22;6448;48.916;8.990;2023-08-07T02:50:58;17.10;59.20
12769;DHT22;6448;48.916;8.990;2023-08-07T02:51:59;17.20;58.60
12769;DHT22;6448;48.916;8.990;2023-08-07T02:53:02;17.10;58.50
12769;DHT22;6448;48.916;8.990;2023-08-07T02:54:03;17.10;58.50
12769;DHT22;6448;48.916;8.990;2023-08-07T02:55:06;17.10;58.50
12769;DHT22;6448;48.916;8.990;2023-08-07T02:56:08;17.10;58.50
12769;DHT22;6448;48.916;8.990;2023-08-07T02:57:09;17.20;58.60
12769;DHT22;6448;48.916;8.990;2023-08-07T02:58:11;17.10;58.50
12769;DHT22;6448;48.916;8.990;2023-08-07T02:59:12;17.10;58.50
12769;DHT22;6448;48.916;8.990;2023-08-07T03:00:14;17.10;58.40
12769;DHT22;6448;48.916;8.990;2023-08-07T03:01:15;17.10;58.30
12769;DHT22;6448;48.916;8.990;2023-08-07T03:02:16;17.20;58.30
12769;DHT22;6448;48.916;8.990;2023-08-07T03:03:17;17.10;58.30
12769;DHT22;6448;48.916;8.990;2023-08-07T03:04:19;17.10;58.30
12769;DHT22;6448;48.916;8.990;2023-08-07T03:05:20;17.10;58.30
12769;DHT22;6448;48.916;8.990;2023-08-07T03:06:21;17.10;58.90
12769;DHT22;6448;48.916;8.990;2023-08-07T03:07:22;17.10;58.30
12769;DHT22;6448;48.916;8.990;2023-08-07T03:08:24;17.10;58.30
12769;DHT22;6448;48.916;8.990;2023-08-07T03:09:25;17.10;58.30
12769;DHT22;6448;48.916;8.990;2023-08-07T03:10:28;17.10;58.30
12769;DHT22;6448;48.916;8.990;2023-08-07T03:11:29;17.10;58.30
12769;DHT22;6448;48.916;8.990;2023-08-07T03:12:31;17.10;58.30
12769;DHT22;6448;48.916;8.990;2023-08-07T03:13:32;17.10;58.30
12769;DHT22;6448;48.916;8.990;2023-08-07T03:14:34;17.10;58.30
12769;DHT22;6448;48.916;8.990;2023-08-07T03:15:35;17.10;58.30
12769;DHT22;6448;48.916;8.990;2023-08-07T03:16:37;17.10;58.30
12769;DHT22;6448;48.916;8.990;2023-08-07T03:17:38;17.10;58.30
12769;DHT22;6448;48.916;8.990;2023-08-07T03:18:40;17.10;58.40
12769;DHT22;6448;48.916;8.990;2023-08-07T03:19:42;17.10;58.40
12769;DHT22;6448;48.916;8.990;2023-08-07T03:20:44;17.10;58.40
12769;DHT22;6448;48.916;8.990;2023-08-07T03:21:45;17.10;58.40
12769;DHT22;6448;48.916;8.990;2023-08-07T03:22:46;17.10;58.30
12769;DHT22;6448;48.916;8.990;2023-08-07T03:23:47;17.10;58.30
12769;DHT22;6448;48.916;8.990;2023-08-07T03:24:49;17.10;58.30
12769;DHT22;6448;48.916;8.990;2023-08-07T03:26:01;17.10;58.30
12769;DHT22;6448;48.916;8.990;2023-08-07T03:27:03;17.10;58.40
12769;DHT22;6448;48.916;8.990;2023-08-07T03:28:05;17.10;58.40
12769;DHT22;6448;48.916;8.990;2023-08-07T03:29:06;17.10;58.40
12769;DHT22;6448;48.916;8.990;2023-08-07T03:30:09;17.10;58.40
12769;DHT22;6448;48.916;8.990;2023-08-07T03:31:10;17.10;58.40
12769;DHT22;6448;48.916;8.990;2023-08-07T03:32:12;17.10;58.40
12769;DHT22;6448;48.916;8.990;2023-08-07T03:33:13;17.10;58.30
12769;DHT22;6448;48.916;8.990;2023-08-07T03:34:14;17.10;58.30
12769;DHT22;6448;48.916;8.990;2023-08-07T03:35:15;17.10;58.30
12769;DHT22;6448;48.916;8.990;2023-08-07T03:36:17;17.10;58.30
12769;DHT22;6448;48.916;8.990;2023-08-07T03:37:19;17.10;58.30
12769;DHT22;6448;48.916;8.990;2023-08-07T03:38:20;17.10;58.30
12769;DHT22;6448;48.916;8.990;2023-08-07T03:39:24;17.10;58.30
12769;DHT22;6448;48.916;8.990;2023-08-07T03:40:25;17.10;58.30
12769;DHT22;6448;48.916;8.990;2023-08-07T03:41:29;17.10;58.30
12769;DHT22;6448;48.916;8.990;2023-08-07T03:42:30;17.10;58.30
12769;DHT22;6448;48.916;8.990;2023-08-07T03:43:32;17.10;58.40
12769;DHT22;6448;48.916;8.990;2023-08-07T03:44:33;17.10;58.40
12769;DHT22;6448;48.916;8.990;2023-08-07T03:45:35;17.10;58.30
12769;DHT22;6448;48.916;8.990;2023-08-07T03:46:36;17.10;58.40
12769;DHT22;6448;48.916;8.990;2023-08-07T03:47:37;17.10;58.40
12769;DHT22;6448;48.916;8.990;2023-08-07T03:48:39;17.30;58.50
12769;DHT22;6448;48.916;8.990;2023-08-07T03:49:41;17.10;58.40
12769;DHT22;6448;48.916;8.990;2023-08-07T03:50:42;17.10;58.40
12769;DHT22;6448;48.916;8.990;2023-08-07T03:51:44;17.10;58.30
12769;DHT22;6448;48.916;8.990;2023-08-07T03:52:45;17.10;58.30
12769;DHT22;6448;48.916;8.990;2023-08-07T03:53:46;17.10;58.30
12769;DHT22;6448;48.916;8.990;2023-08-07T03:54:47;17.10;58.30
12769;DHT22;6448;48.916;8.990;2023-08-07T03:55:49;17.10;58.30
12769;DHT22;6448;48.916;8.990;2023-08-07T03:56:53;17.10;58.30
12769;DHT22;6448;48.916;8.990;2023-08-07T03:57:55;17.10;58.20
12769;DHT22;6448;48.916;8.990;2023-08-07T03:58:55;17.10;58.20
12769;DHT22;6448;48.916;8.990;2023-08-07T03:59:59;17.10;58.20
12769;DHT22;6448;48.916;8.990;2023-08-07T04:01:03;17.10;58.20
12769;DHT22;6448;48.916;8.990;2023-08-07T04:02:05;17.10;58.30
12769;DHT22;6448;48.916;8.990;2023-08-07T04:03:06;17.10;58.20
12769;DHT22;6448;48.916;8.990;2023-08-07T04:04:08;17.10;58.20
12769;DHT22;6448;48.916;8.990;2023-08-07T04:05:08;17.10;58.20
12769;DHT22;6448;48.916;8.990;2023-08-07T04:06:12;17.10;58.20
12769;DHT22;6448;48.916;8.990;2023-08-07T04:07:16;17.10;58.20
12769;DHT22;6448;48.916;8.990;2023-08-07T04:08:18;17.10;58.20
12769;DHT22;6448;48.916;8.990;2023-08-07T04:09:19;17.10;58.10
12769;DHT22;6448;48.916;8.990;2023-08-07T04:10:21;17.10;58.20
12769;DHT22;6448;48.916;8.990;2023-08-07T04:11:21;17.10;58.20
12769;DHT22;6448;48.916;8.990;2023-08-07T04:12:25;17.10;58.20
12769;DHT22;6448;48.916;8.990;2023-08-07T04:13:28;17.10;58.20
12769;DHT22;6448;48.916;8.990;2023-08-07T04:14:29;17.10;58.20
12769;DHT22;6448;48.916;8.990;2023-08-07T04:15:30;17.10;58.20
12769;DHT22;6448;48.916;8.990;2023-08-07T04:16:31;17.10;58.20
12769;DHT22;6448;48.916;8.990;2023-08-07T04:17:33;17.10;58.20
12769;DHT22;6448;48.916;8.990;2023-08-07T04:18:36;17.10;58.20
12769;DHT22;6448;48.916;8.990;2023-08-07T04:19:38;17.10;58.20
12769;DHT22;6448;48.916;8.990;2023-08-07T04:20:38;17.10;58.10
12769;DHT22;6448;48.916;8.990;2023-08-07T04:21:39;17.10;58.10
12769;DHT22;6448;48.916;8.990;2023-08-07T04:22:43;17.10;58.10
12769;DHT22;6448;48.916;8.990;2023-08-07T04:23:46;17.10;58.10
12769;DHT22;6448;48.916;8.990;2023-08-07T04:24:48;17.10;58.00
12769;DHT22;6448;48.916;8.990;2023-08-07T04:25:49;17.10;58.00
12769;DHT22;6448;48.916;8.990;2023-08-07T04:26:50;17.10;58.00
12769;DHT22;6448;48.916;8.990;2023-08-07T04:27:55;17.10;58.00
12769;DHT22;6448;48.916;8.990;2023-08-07T04:28:56;17.10;57.90
12769;DHT22;6448;48.916;8.990;2023-08-07T04:29:57;17.10;58.00
12769;DHT22;6448;48.916;8.990;2023-08-07T04:30:58;17.10;58.00
12769;DHT22;6448;48.916;8.990;2023-08-07T04:32:00;17.10;58.00
12769;DHT22;6448;48.916;8.990;2023-08-07T04:33:01;17.10;58.00
12769;DHT22;6448;48.916;8.990;2023-08-07T04:34:03;17.10;58.00
12769;DHT22;6448;48.916;8.990;2023-08-07T04:35:05;17.10;58.00
12769;DHT22;6448;48.916;8.990;2023-08-07T04:36:07;17.10;58.00
12769;DHT22;6448;48.916;8.990;2023-08-07T04:37:07;17.10;58.00
12769;DHT22;6448;48.916;8.990;2023-08-07T04:38:09;17.10;58.00
12769;DHT22;6448;48.916;8.990;2023-08-07T04:39:10;17.10;58.00
12769;DHT22;6448;48.916;8.990;2023-08-07T04:40:12;17.10;58.00
12769;DHT22;6448;48.916;8.990;2023-08-07T04:41:13;17.10;58.00
12769;DHT22;6448;48.916;8.990;2023-08-07T04:42:15;17.10;58.00
12769;DHT22;6448;48.916;8.990;2023-08-07T04:43:18;17.10;58.00
12769;DHT22;6448;48.916;8.990;2023-08-07T04:44:21;17.10;58.00
12769;DHT22;6448;48.916;8.990;2023-08-07T04:45:21;17.10;58.00
12769;DHT22;6448;48.916;8.990;2023-08-07T04:46:23;17.10;58.00
12769;DHT22;6448;48.916;8.990;2023-08-07T04:47:24;17.10;58.00
12769;DHT22;6448;48.916;8.990;2023-08-07T04:48:26;17.10;58.10
12769;DHT22;6448;48.916;8.990;2023-08-07T04:49:26;17.10;58.10
12769;DHT22;6448;48.916;8.990;2023-08-07T04:50:29;17.10;58.10
12769;DHT22;6448;48.916;8.990;2023-08-07T04:51:30;17.10;58.00
12769;DHT22;6448;48.916;8.990;2023-08-07T04:52:32;17.10;58.10
12769;DHT22;6448;48.916;8.990;2023-08-07T04:53:33;17.10;58.10
12769;DHT22;6448;48.916;8.990;2023-08-07T04:54:34;17.10;58.00
12769;DHT22;6448;48.916;8.990;2023-08-07T04:55:35;17.10;58.00
12769;DHT22;6448;48.916;8.990;2023-08-07T04:56:36;17.10;58.00
12769;DHT22;6448;48.916;8.990;2023-08-07T04:57:37;17.10;58.00
12769;DHT22;6448;48.916;8.990;2023-08-07T04:58:40;17.10;58.00
12769;DHT22;6448;48.916;8.990;2023-08-07T04:59:41;17.10;58.00
12769;DHT22;6448;48.916;8.990;2023-08-07T05:00:42;17.10;58.10
12769;DHT22;6448;48.916;8.990;2023-08-07T05:01:44;17.10;58.00
12769;DHT22;6448;48.916;8.990;2023-08-07T05:02:45;17.10;58.00
12769;DHT22;6448;48.916;8.990;2023-08-07T05:03:48;17.10;58.00
12769;DHT22;6448;48.916;8.990;2023-08-07T05:04:49;17.10;58.10
12769;DHT22;6448;48.916;8.990;2023-08-07T05:05:50;17.10;58.00
12769;DHT22;6448;48.916;8.990;2023-08-07T05:06:51;17.10;58.00
12769;DHT22;6448;48.916;8.990;2023-08-07T05:07:54;17.10;58.00
12769;DHT22;6448;48.916;8.990;2023-08-07T05:08:55;17.10;58.10
12769;DHT22;6448;48.916;8.990;2023-08-07T05:09:57;17.10;58.10
12769;DHT22;6448;48.916;8.990;2023-08-07T05:11:00;17.10;58.10
12769;DHT22;6448;48.916;8.990;2023-08-07T05:12:02;17.10;58.20
12769;DHT22;6448;48.916;8.990;2023-08-07T05:13:02;17.10;58.20
12769;DHT22;6448;48.916;8.990;2023-08-07T05:14:05;17.10;58.20
12769;DHT22;6448;48.916;8.990;2023-08-07T05:15:07;17.10;58.80
12769;DHT22;6448;48.916;8.990;2023-08-07T05:16:09;17.10;58.30
12769;DHT22;6448;48.916;8.990;2023-08-07T05:17:09;17.20;58.30
12769;DHT22;6448;48.916;8.990;2023-08-07T05:18:13;17.20;58.30
12769;DHT22;6448;48.916;8.990;2023-08-07T05:19:14;17.20;58.30
12769;DHT22;6448;48.916;8.990;2023-08-07T05:20:16;17.10;58.20
12769;DHT22;6448;48.916;8.990;2023-08-07T05:21:17;17.20;58.30
12769;DHT22;6448;48.916;8.990;2023-08-07T05:22:19;17.20;58.20
12769;DHT22;6448;48.916;8.990;2023-08-07T05:23:19;17.20;58.20
12769;DHT22;6448;48.916;8.990;2023-08-07T05:24:21;17.20;58.20
12769;DHT22;6448;48.916;8.990;2023-08-07T05:25:22;17.20;58.20
12769;DHT22;6448;48.916;8.990;2023-08-07T05:26:24;17.20;58.20
12769;DHT22;6448;48.916;8.990;2023-08-07T05:27:24;17.20;58.20
12769;DHT22;6448;48.916;8.990;2023-08-07T05:28:26;17.20;58.10
12769;DHT22;6448;48.916;8.990;2023-08-07T05:29:28;17.20;58.00
12769;DHT22;6448;48.916;8.990;2023-08-07T05:30:30;17.20;58.60
12769;DHT22;6448;48.916;8.990;2023-08-07T05:31:31;17.20;58.00
12769;DHT22;6448;48.916;8.990;2023-08-07T05:32:32;17.20;57.90
12769;DHT22;6448;48.916;8.990;2023-08-07T05:33:34;17.20;57.90
12769;DHT22;6448;48.916;8.990;2023-08-07T05:34:35;17.20;57.80
12769;DHT22;6448;48.916;8.990;2023-08-07T05:35:38;17.30;57.80
12769;DHT22;6448;48.916;8.990;2023-08-07T05:36:39;17.20;57.70
12769;DHT22;6448;48.916;8.990;2023-08-07T05:37:41;17.20;57.60
12769;DHT22;6448;48.916;8.990;2023-08-07T05:38:42;17.30;57.70
12769;DHT22;6448;48.916;8.990;2023-08-07T05:39:44;17.20;57.60
12769;DHT22;6448;48.916;8.990;2023-08-07T05:40:45;17.30;57.70
12769;DHT22;6448;48.916;8.990;2023-08-07T05:41:47;17.30;57.60
12769;DHT22;6448;48.916;8.990;2023-08-07T05:42:47;17.30;57.50
12769;DHT22;6448;48.916;8.990;2023-08-07T05:43:49;17.30;57.40
12769;DHT22;6448;48.916;8.990;2023-08-07T05:44:51;17.30;57.40
12769;DHT22;6448;48.916;8.990;2023-08-07T05:45:53;17.30;57.30
12769;DHT22;6448;48.916;8.990;2023-08-07T05:46:54;17.30;57.30
12769;DHT22;6448;48.916;8.990;2023-08-07T05:47:55;17.40;57.30
12769;DHT22;6448;48.916;8.990;2023-08-07T05:48:56;17.30;57.30
12769;DHT22;6448;48.916;8.990;2023-08-07T05:49:58;17.30;57.20
12769;DHT22;6448;48.916;8.990;2023-08-07T05:50:59;17.30;57.10
12769;DHT22;6448;48.916;8.990;2023-08-07T05:52:00;17.40;57.10
12769;DHT22;6448;48.916;8.990;2023-08-07T05:53:01;17.40;57.10
12769;DHT22;6448;48.916;8.990;2023-08-07T05:54:03;17.30;57.00
12769;DHT22;6448;48.916;8.990;2023-08-07T05:55:05;17.40;57.00
12769;DHT22;6448;48.916;8.990;2023-08-07T05:56:07;17.40;57.00
12769;DHT22;6448;48.916;8.990;2023-08-07T05:57:07;17.30;56.90
12769;DHT22;6448;48.916;8.990;2023-08-07T05:58:09;17.40;56.90
12769;DHT22;6448;48.916;8.990;2023-08-07T05:59:10;17.40;56.90
12769;DHT22;6448;48.916;8.990;2023-08-07T06:00:14;17.40;56.90
12769;DHT22;6448;48.916;8.990;2023-08-07T06:01:18;17.40;56.80
12769;DHT22;6448;48.916;8.990;2023-08-07T06:02:19;17.40;56.70
12769;DHT22;6448;48.916;8.990;2023-08-07T06:03:20;17.40;56.70
12769;DHT22;6448;48.916;8.990;2023-08-07T06:04:22;17.40;56.70
12769;DHT22;6448;48.916;8.990;2023-08-07T06:05:23;17.50;56.80
12769;DHT22;6448;48.916;8.990;2023-08-07T06:06:25;17.50;56.90
12769;DHT22;6448;48.916;8.990;2023-08-07T06:07:26;17.50;56.90
12769;DHT22;6448;48.916;8.990;2023-08-07T06:08:28;17.50;56.90
12769;DHT22;6448;48.916;8.990;2023-08-07T06:09:29;17.50;56.90
12769;DHT22;6448;48.916;8.990;2023-08-07T06:10:31;17.50;56.90
12769;DHT22;6448;48.916;8.990;2023-08-07T06:11:32;17.50;56.90
12769;DHT22;6448;48.916;8.990;2023-08-07T06:12:34;17.50;56.90
12769;DHT22;6448;48.916;8.990;2023-08-07T06:13:35;17.50;56.80
12769;DHT22;6448;48.916;8.990;2023-08-07T06:14:37;17.50;56.90
12769;DHT22;6448;48.916;8.990;2023-08-07T06:15:39;17.50;56.80
12769;DHT22;6448;48.916;8.990;2023-08-07T06:16:41;17.50;56.70
12769;DHT22;6448;48.916;8.990;2023-08-07T06:17:42;17.50;56.70
12769;DHT22;6448;48.916;8.990;2023-08-07T06:18:43;17.50;56.70
12769;DHT22;6448;48.916;8.990;2023-08-07T06:19:44;17.50;56.70
12769;DHT22;6448;48.916;8.990;2023-08-07T06:20:46;17.60;56.70
12769;DHT22;6448;48.916;8.990;2023-08-07T06:21:47;17.50;56.60
12769;DHT22;6448;48.916;8.990;2023-08-07T06:22:47;17.50;56.50
12769;DHT22;6448;48.916;8.990;2023-08-07T06:23:49;17.50;56.50
12769;DHT22;6448;48.916;8.990;2023-08-07T06:24:50;17.50;56.50
12769;DHT22;6448;48.916;8.990;2023-08-07T06:25:52;17.60;56.60
12769;DHT22;6448;48.916;8.990;2023-08-07T06:26:53;17.50;56.50
12769;DHT22;6448;48.916;8.990;2023-08-07T06:27:54;17.60;56.60
12769;DHT22;6448;48.916;8.990;2023-08-07T06:28:55;17.50;56.60
12769;DHT22;6448;48.916;8.990;2023-08-07T06:29:57;17.60;56.70
12769;DHT22;6448;48.916;8.990;2023-08-07T06:31:02;17.60;56.80
12769;DHT22;6448;48.916;8.990;2023-08-07T06:32:04;17.60;56.90
12769;DHT22;6448;48.916;8.990;2023-08-07T06:33:06;17.60;56.90
12769;DHT22;6448;48.916;8.990;2023-08-07T06:34:09;17.60;56.80
12769;DHT22;6448;48.916;8.990;2023-08-07T06:35:10;17.60;56.80
12769;DHT22;6448;48.916;8.990;2023-08-07T06:36:12;17.60;56.90
12769;DHT22;6448;48.916;8.990;2023-08-07T06:37:15;17.60;57.00